Evergreen, CO (80439)

10:09 PM MDT on April 26, 2015 (GMT -0600)
El Pinal | | Change Station
CLOSE
Current Station
Personal Weather Station
Location: Evergreen, CO
Elevation: 7408 ft
Nearby Weather Stations

Elev 7408 ft 39.66 °N, 105.34 °W | Updated 38 minutes ago

Snow
Snow
33.3 °F
Feels Like 33 °F
N
0.0
Wind Variable Wind from WNW
Gusts 0.0 mph

Today
High -- | Low -- °F
--% Chance of Precip.
Yesterday
High -- | Low -- °F
Precip. -- in
6:08 AM 7:50 PM
First Quarter, 61% visible
Pressure 30.06 in
Visibility 0.8 miles
Clouds Mostly Cloudy 200 ft
Overcast 700 ft
Windchill 33 °F
Dew Point 33 °F
Humidity 99%
Rainfall 0.74 in
Snow Depth Not available.
UV 0 out of 12
Pollen 3.10 out of 12
Air Quality Not available.
Flu Activity Sporadic
METAR KBJC 270347Z 02005KT 3/4SM -RA BKN002 OVC007 05/05 A3006 RMK LAST

More Conditions Fewer Conditions

Pressure 30.06 in
Visibility 0.8 miles
Clouds Mostly Cloudy 200 ft
Overcast 700 ft
Windchill 33 °F
Dew Point 33 °F
Humidity 99%
Rainfall 0.74 in
Snow Depth Not available.
UV 0 out of 12
Pollen 3.10 out of 12
Air Quality Not available.
Flu Activity Sporadic
METAR KBJC 270347Z 02005KT 3/4SM -RA BKN002 OVC007 05/05 A3006 RMK LAST

More Conditions Fewer Conditions

The full scope of the disaster following a powerful 7.8-magnitude earthquake in Nepal may not come into view for days, but global charities are already sending emergency aid. Click to see how you can help.
Nowcast | as of 8:51 PM MDT on April 26, 2015

Rain and snow will continue across the foothills into the early morning hours. The snow level will lower from around 7500 feet to 6500 feet. Snowfall rates in the higher foothills will be up to an inch an hour in some of the heavier showers. Roads could become slushy during the periods of heavy snow but will otherwise be wet. Visibilities may also drop as low as a quarter mile in fog in some locations.

×

10-Day Weather Forecast

Almanac

Astronomy

Apr. 26, 2015 Rise Set
Actual Time
Civil Twilight
Nautical Twilight
Astronomical Twilight
Moon
Length of Visible Light
Length of Day
Tomorrow will be .
, % of the Moon is Illuminated

Today's Extremes

State Highs State Lows

Community

WunderPhotos

Upload Photos

1,817,259 photos uploaded!

WunderBlogs® & News

Nearby

Air Quality

  Air Quality AQ Index Pollutant
Not available.

Snow Depth

Station Depth Elevation

Earthquake Activity

City Distance Mag. Time & Date
Minimum magnitude displayed is 2.5.

Coastal Water Temperatures

Place Temperature

Stations

Nearby Weather Stations

Station Location Temp. Windchill Dew Point Humidity Wind Precip. Elev Updated Type